Terminal Aerodrome Forecast
Issued by NWS

Home | Current Version | Previous Version | Text Only | Print | Product List | Glossary On
Versions: 1 2 3 4 5 6 7 8 9 10 11 12 13
000
FTUS45 KRIW 231911 AAA
TAFBPI
TAF AMD
KBPI 231911Z 2319/2418 29015G25KT P6SM FEW110
     FM240100 33009KT P6SM FEW110
     FM240500 36006KT P6SM SKC
     FM241500 15006KT P6SM SKC=

USA.gov is the U.S. government's official web portal to all federal, state and local government web resources and services.